sensor_id;sensor_type;location;lat;lon;timestamp;pressure;altitude;pressure_sealevel;temperature;humidity
16030;BME280;34770;49.272;11.070;2023-02-16T00:00:05;98848.13;;;-1.93;100.00
16030;BME280;34770;49.272;11.070;2023-02-16T00:02:31;98854.34;;;-1.98;100.00
16030;BME280;34770;49.272;11.070;2023-02-16T00:04:56;98850.19;;;-2.00;100.00
16030;BME280;34770;49.272;11.070;2023-02-16T00:07:22;98854.75;;;-2.06;100.00
16030;BME280;34770;49.272;11.070;2023-02-16T00:09:47;98843.31;;;-2.20;100.00
16030;BME280;34770;49.272;11.070;2023-02-16T00:12:18;98852.19;;;-2.13;100.00
16030;BME280;34770;49.272;11.070;2023-02-16T00:15:16;98863.16;;;-2.25;100.00
16030;BME280;34770;49.272;11.070;2023-02-16T00:17:42;98851.50;;;-2.20;100.00
16030;BME280;34770;49.272;11.070;2023-02-16T00:20:17;98844.06;;;-2.25;100.00
16030;BME280;34770;49.272;11.070;2023-02-16T00:22:43;98833.19;;;-2.36;100.00
16030;BME280;34770;49.272;11.070;2023-02-16T00:25:09;98843.25;;;-2.25;100.00
16030;BME280;34770;49.272;11.070;2023-02-16T00:27:35;98849.28;;;-2.23;100.00
16030;BME280;34770;49.272;11.070;2023-02-16T00:30:02;98829.81;;;-2.44;100.00
16030;BME280;34770;49.272;11.070;2023-02-16T00:32:29;98836.44;;;-2.39;100.00
16030;BME280;34770;49.272;11.070;2023-02-16T00:34:55;98843.72;;;-2.28;100.00
16030;BME280;34770;49.272;11.070;2023-02-16T00:37:20;98852.16;;;-2.30;100.00
16030;BME280;34770;49.272;11.070;2023-02-16T00:39:46;98840.72;;;-2.44;100.00
16030;BME280;34770;49.272;11.070;2023-02-16T00:42:17;98841.06;;;-2.40;100.00
16030;BME280;34770;49.272;11.070;2023-02-16T00:44:46;98831.22;;;-2.41;100.00
16030;BME280;34770;49.272;11.070;2023-02-16T00:49:54;98843.03;;;-2.35;100.00
16030;BME280;34770;49.272;11.070;2023-02-16T00:52:25;98843.03;;;-2.35;100.00
16030;BME280;34770;49.272;11.070;2023-02-16T00:54:51;98821.88;;;-2.45;100.00
16030;BME280;34770;49.272;11.070;2023-02-16T00:57:17;98830.47;;;-2.36;100.00
16030;BME280;34770;49.272;11.070;2023-02-16T00:59:44;98819.41;;;-2.47;100.00
16030;BME280;34770;49.272;11.070;2023-02-16T01:02:11;98823.19;;;-2.48;100.00
16030;BME280;34770;49.272;11.070;2023-02-16T01:04:36;98819.88;;;-2.50;100.00
16030;BME280;34770;49.272;11.070;2023-02-16T01:07:09;98831.97;;;-2.46;100.00
16030;BME280;34770;49.272;11.070;2023-02-16T01:09:54;98837.31;;;-2.51;100.00
16030;BME280;34770;49.272;11.070;2023-02-16T01:12:38;98823.09;;;-2.53;100.00
16030;BME280;34770;49.272;11.070;2023-02-16T01:15:05;98816.00;;;-2.83;100.00
16030;BME280;34770;49.272;11.070;2023-02-16T01:17:34;98824.47;;;-2.67;100.00
16030;BME280;34770;49.272;11.070;2023-02-16T01:19:59;98821.84;;;-2.62;100.00
16030;BME280;34770;49.272;11.070;2023-02-16T01:22:25;98805.78;;;-2.76;100.00
16030;BME280;34770;49.272;11.070;2023-02-16T01:24:51;98829.44;;;-2.64;100.00
16030;BME280;34770;49.272;11.070;2023-02-16T01:27:16;98826.94;;;-2.66;100.00
16030;BME280;34770;49.272;11.070;2023-02-16T01:29:42;98827.47;;;-2.81;100.00
16030;BME280;34770;49.272;11.070;2023-02-16T01:32:11;98823.81;;;-2.86;100.00
16030;BME280;34770;49.272;11.070;2023-02-16T01:34:36;98812.88;;;-2.75;100.00
16030;BME280;34770;49.272;11.070;2023-02-16T01:37:02;98811.91;;;-2.68;100.00
16030;BME280;34770;49.272;11.070;2023-02-16T01:39:28;98820.16;;;-2.63;100.00
16030;BME280;34770;49.272;11.070;2023-02-16T01:42:09;98812.06;;;-2.75;100.00
16030;BME280;34770;49.272;11.070;2023-02-16T01:44:59;98800.97;;;-2.85;100.00
16030;BME280;34770;49.272;11.070;2023-02-16T01:47:31;98805.69;;;-2.81;100.00
16030;BME280;34770;49.272;11.070;2023-02-16T01:50:34;98806.16;;;-2.84;100.00
16030;BME280;34770;49.272;11.070;2023-02-16T01:53:05;98775.66;;;-2.98;100.00
16030;BME280;34770;49.272;11.070;2023-02-16T01:55:44;98804.66;;;-2.92;100.00
16030;BME280;34770;49.272;11.070;2023-02-16T02:03:19;98790.50;;;-2.77;100.00
16030;BME280;34770;49.272;11.070;2023-02-16T02:06:11;98787.19;;;-2.79;100.00
16030;BME280;34770;49.272;11.070;2023-02-16T02:08:42;98794.00;;;-2.64;100.00
16030;BME280;34770;49.272;11.070;2023-02-16T02:11:20;98786.31;;;-2.67;100.00
16030;BME280;34770;49.272;11.070;2023-02-16T02:13:51;98782.66;;;-2.73;100.00
16030;BME280;34770;49.272;11.070;2023-02-16T02:16:23;98786.06;;;-2.66;100.00
16030;BME280;34770;49.272;11.070;2023-02-16T02:18:49;98786.22;;;-2.73;100.00
16030;BME280;34770;49.272;11.070;2023-02-16T02:27:21;98766.63;;;-2.98;100.00
16030;BME280;34770;49.272;11.070;2023-02-16T02:32:21;98781.88;;;-2.85;100.00
16030;BME280;34770;49.272;11.070;2023-02-16T02:34:55;98778.91;;;-2.84;100.00
16030;BME280;34770;49.272;11.070;2023-02-16T02:40:18;98777.38;;;-2.80;100.00
16030;BME280;34770;49.272;11.070;2023-02-16T02:45:39;98755.34;;;-2.90;100.00
16030;BME280;34770;49.272;11.070;2023-02-16T02:48:07;98772.72;;;-2.79;100.00
16030;BME280;34770;49.272;11.070;2023-02-16T02:53:47;98738.66;;;-2.94;100.00
16030;BME280;34770;49.272;11.070;2023-02-16T02:56:15;98748.25;;;-2.91;100.00
16030;BME280;34770;49.272;11.070;2023-02-16T02:59:04;98764.94;;;-2.88;100.00
16030;BME280;34770;49.272;11.070;2023-02-16T03:01:53;98760.63;;;-3.00;100.00
16030;BME280;34770;49.272;11.070;2023-02-16T03:04:24;98776.59;;;-2.92;100.00
16030;BME280;34770;49.272;11.070;2023-02-16T03:06:55;98765.78;;;-2.87;100.00
16030;BME280;34770;49.272;11.070;2023-02-16T03:09:22;98775.66;;;-2.98;100.00
16030;BME280;34770;49.272;11.070;2023-02-16T03:11:49;98763.34;;;-3.00;100.00
16030;BME280;34770;49.272;11.070;2023-02-16T03:14:40;98773.28;;;-2.94;100.00
16030;BME280;34770;49.272;11.070;2023-02-16T03:17:10;98779.31;;;-2.92;100.00
16030;BME280;34770;49.272;11.070;2023-02-16T03:19:57;98772.50;;;-3.07;100.00
16030;BME280;34770;49.272;11.070;2023-02-16T03:22:43;98766.19;;;-3.07;100.00
16030;BME280;34770;49.272;11.070;2023-02-16T03:25:34;98752.50;;;-3.12;100.00
16030;BME280;34770;49.272;11.070;2023-02-16T03:28:21;98754.50;;;-3.08;100.00
16030;BME280;34770;49.272;11.070;2023-02-16T03:31:07;98753.44;;;-3.07;100.00
16030;BME280;34770;49.272;11.070;2023-02-16T03:33:35;98752.00;;;-3.09;100.00
16030;BME280;34770;49.272;11.070;2023-02-16T03:36:01;98751.19;;;-3.10;100.00
16030;BME280;34770;49.272;11.070;2023-02-16T03:38:27;98734.31;;;-3.24;100.00
16030;BME280;34770;49.272;11.070;2023-02-16T03:40:54;98746.06;;;-3.06;100.00
16030;BME280;34770;49.272;11.070;2023-02-16T03:43:23;98719.16;;;-3.02;100.00
16030;BME280;34770;49.272;11.070;2023-02-16T03:45:49;98735.22;;;-2.89;100.00
16030;BME280;34770;49.272;11.070;2023-02-16T03:48:15;98739.25;;;-2.92;100.00
16030;BME280;34770;49.272;11.070;2023-02-16T03:50:40;98736.09;;;-3.00;100.00
16030;BME280;34770;49.272;11.070;2023-02-16T03:53:06;98728.75;;;-3.00;100.00
16030;BME280;34770;49.272;11.070;2023-02-16T03:55:44;98738.63;;;-2.82;100.00
16030;BME280;34770;49.272;11.070;2023-02-16T03:58:13;98740.28;;;-2.81;100.00
16030;BME280;34770;49.272;11.070;2023-02-16T04:00:39;98749.44;;;-2.87;100.00
16030;BME280;34770;49.272;11.070;2023-02-16T04:03:05;98729.09;;;-2.96;100.00
16030;BME280;34770;49.272;11.070;2023-02-16T04:05:32;98741.81;;;-2.85;100.00
16030;BME280;34770;49.272;11.070;2023-02-16T04:07:57;98760.91;;;-2.85;100.00
16030;BME280;34770;49.272;11.070;2023-02-16T04:10:23;98735.94;;;-2.94;100.00
16030;BME280;34770;49.272;11.070;2023-02-16T04:12:49;98737.00;;;-2.95;100.00
16030;BME280;34770;49.272;11.070;2023-02-16T04:15:17;98745.06;;;-2.88;100.00
16030;BME280;34770;49.272;11.070;2023-02-16T04:17:43;98750.00;;;-2.85;100.00
16030;BME280;34770;49.272;11.070;2023-02-16T04:20:11;98719.56;;;-3.11;100.00
16030;BME280;34770;49.272;11.070;2023-02-16T04:22:37;98756.44;;;-2.91;100.00
16030;BME280;34770;49.272;11.070;2023-02-16T04:25:03;98739.56;;;-3.05;100.00
16030;BME280;34770;49.272;11.070;2023-02-16T04:27:29;98773.88;;;-2.92;100.00
16030;BME280;34770;49.272;11.070;2023-02-16T04:29:54;98765.91;;;-2.94;100.00
16030;BME280;34770;49.272;11.070;2023-02-16T04:32:20;98772.69;;;-2.96;100.00
16030;BME280;34770;49.272;11.070;2023-02-16T04:34:45;98774.81;;;-2.98;100.00
16030;BME280;34770;49.272;11.070;2023-02-16T04:37:11;98765.38;;;-3.08;100.00
16030;BME280;34770;49.272;11.070;2023-02-16T04:39:36;98760.03;;;-3.02;100.00
16030;BME280;34770;49.272;11.070;2023-02-16T04:42:02;98766.53;;;-3.03;100.00
16030;BME280;34770;49.272;11.070;2023-02-16T04:44:28;98764.19;;;-3.12;100.00
16030;BME280;34770;49.272;11.070;2023-02-16T04:46:54;98781.16;;;-3.22;100.00
16030;BME280;34770;49.272;11.070;2023-02-16T04:49:20;98771.47;;;-3.17;100.00
16030;BME280;34770;49.272;11.070;2023-02-16T04:51:46;98774.28;;;-3.12;100.00
16030;BME280;34770;49.272;11.070;2023-02-16T04:54:11;98776.50;;;-3.09;100.00
16030;BME280;34770;49.272;11.070;2023-02-16T04:56:37;98769.09;;;-3.14;100.00
16030;BME280;34770;49.272;11.070;2023-02-16T04:59:02;98748.38;;;-3.15;100.00
16030;BME280;34770;49.272;11.070;2023-02-16T05:01:28;98759.16;;;-3.20;100.00
16030;BME280;34770;49.272;11.070;2023-02-16T05:03:54;98774.97;;;-3.05;100.00
16030;BME280;34770;49.272;11.070;2023-02-16T05:06:20;98768.13;;;-3.08;100.00
16030;BME280;34770;49.272;11.070;2023-02-16T05:08:45;98766.69;;;-3.10;100.00
16030;BME280;34770;49.272;11.070;2023-02-16T05:11:11;98777.72;;;-3.17;100.00
16030;BME280;34770;49.272;11.070;2023-02-16T05:13:58;98766.22;;;-3.19;100.00
16030;BME280;34770;49.272;11.070;2023-02-16T05:16:53;98763.75;;;-3.21;100.00
16030;BME280;34770;49.272;11.070;2023-02-16T05:19:18;98772.19;;;-3.22;100.00
16030;BME280;34770;49.272;11.070;2023-02-16T05:21:44;98762.47;;;-3.30;100.00
16030;BME280;34770;49.272;11.070;2023-02-16T05:24:10;98785.00;;;-3.34;100.00
16030;BME280;34770;49.272;11.070;2023-02-16T05:26:37;98780.72;;;-3.30;100.00
16030;BME280;34770;49.272;11.070;2023-02-16T05:29:05;98784.59;;;-3.26;100.00
16030;BME280;34770;49.272;11.070;2023-02-16T05:31:31;98790.91;;;-3.26;100.00
16030;BME280;34770;49.272;11.070;2023-02-16T05:33:59;98784.41;;;-3.37;100.00
16030;BME280;34770;49.272;11.070;2023-02-16T05:36:24;98782.84;;;-3.32;100.00
16030;BME280;34770;49.272;11.070;2023-02-16T05:38:50;98789.00;;;-3.25;100.00
16030;BME280;34770;49.272;11.070;2023-02-16T05:41:15;98790.66;;;-3.24;100.00
16030;BME280;34770;49.272;11.070;2023-02-16T05:43:51;98795.16;;;-3.30;100.00
16030;BME280;34770;49.272;11.070;2023-02-16T05:46:18;98795.28;;;-3.37;100.00
16030;BME280;34770;49.272;11.070;2023-02-16T05:48:43;98789.25;;;-3.27;100.00
16030;BME280;34770;49.272;11.070;2023-02-16T05:51:09;98772.56;;;-3.42;100.00
16030;BME280;34770;49.272;11.070;2023-02-16T05:53:34;98784.59;;;-3.26;100.00
16030;BME280;34770;49.272;11.070;2023-02-16T05:56:00;98794.66;;;-3.15;100.00
16030;BME280;34770;49.272;11.070;2023-02-16T05:58:25;98801.03;;;-3.09;100.00
16030;BME280;34770;49.272;11.070;2023-02-16T06:00:52;98786.72;;;-3.16;100.00
16030;BME280;34770;49.272;11.070;2023-02-16T06:03:17;98807.56;;;-3.10;100.00
16030;BME280;34770;49.272;11.070;2023-02-16T06:05:43;98805.56;;;-3.15;100.00
16030;BME280;34770;49.272;11.070;2023-02-16T06:08:08;98806.00;;;-3.06;100.00
16030;BME280;34770;49.272;11.070;2023-02-16T06:10:34;98806.81;;;-3.06;100.00
16030;BME280;34770;49.272;11.070;2023-02-16T06:12:59;98801.63;;;-3.07;100.00
16030;BME280;34770;49.272;11.070;2023-02-16T06:15:25;98772.78;;;-3.20;100.00
16030;BME280;34770;49.272;11.070;2023-02-16T06:17:50;98807.91;;;-3.07;100.00
16030;BME280;34770;49.272;11.070;2023-02-16T06:20:16;98802.13;;;-3.10;100.00
16030;BME280;34770;49.272;11.070;2023-02-16T06:22:41;98799.13;;;-3.09;100.00
16030;BME280;34770;49.272;11.070;2023-02-16T06:25:07;98810.97;;;-3.03;100.00
16030;BME280;34770;49.272;11.070;2023-02-16T06:27:32;98808.72;;;-3.06;100.00
16030;BME280;34770;49.272;11.070;2023-02-16T06:29:58;98813.09;;;-3.05;100.00
16030;BME280;34770;49.272;11.070;2023-02-16T06:32:23;98819.88;;;-3.08;100.00
16030;BME280;34770;49.272;11.070;2023-02-16T06:34:49;98820.91;;;-2.97;100.00
16030;BME280;34770;49.272;11.070;2023-02-16T06:37:14;98813.22;;;-3.12;100.00
16030;BME280;34770;49.272;11.070;2023-02-16T06:39:40;98816.09;;;-3.07;100.00
16030;BME280;34770;49.272;11.070;2023-02-16T06:42:05;98816.78;;;-2.99;100.00
16030;BME280;34770;49.272;11.070;2023-02-16T06:44:30;98816.19;;;-3.01;100.00
16030;BME280;34770;49.272;11.070;2023-02-16T06:46:56;98822.56;;;-2.96;100.00
16030;BME280;34770;49.272;11.070;2023-02-16T06:49:21;98809.88;;;-3.02;100.00
16030;BME280;34770;49.272;11.070;2023-02-16T06:51:48;98831.66;;;-2.90;100.00
16030;BME280;34770;49.272;11.070;2023-02-16T06:54:14;98831.66;;;-2.90;100.00
16030;BME280;34770;49.272;11.070;2023-02-16T06:56:40;98826.78;;;-2.88;100.00
16030;BME280;34770;49.272;11.070;2023-02-16T06:59:06;98823.81;;;-2.86;100.00
16030;BME280;34770;49.272;11.070;2023-02-16T07:01:33;98831.16;;;-2.75;100.00
16030;BME280;34770;49.272;11.070;2023-02-16T07:03:58;98839.41;;;-2.70;100.00
16030;BME280;34770;49.272;11.070;2023-02-16T07:06:26;98852.31;;;-2.65;100.00
16030;BME280;34770;49.272;11.070;2023-02-16T07:08:52;98849.59;;;-2.65;100.00
16030;BME280;34770;49.272;11.070;2023-02-16T07:11:18;98847.91;;;-2.54;100.00
16030;BME280;34770;49.272;11.070;2023-02-16T07:13:44;98843.47;;;-2.44;100.00
16030;BME280;34770;49.272;11.070;2023-02-16T07:16:11;98844.09;;;-2.36;100.00
16030;BME280;34770;49.272;11.070;2023-02-16T07:18:36;98840.31;;;-2.35;100.00
16030;BME280;34770;49.272;11.070;2023-02-16T07:21:02;98842.06;;;-2.29;100.00
16030;BME280;34770;49.272;11.070;2023-02-16T07:23:27;98836.59;;;-2.29;100.00
16030;BME280;34770;49.272;11.070;2023-02-16T07:25:53;98839.09;;;-2.28;100.00
16030;BME280;34770;49.272;11.070;2023-02-16T07:28:18;98857.47;;;-2.23;100.00
16030;BME280;34770;49.272;11.070;2023-02-16T07:30:44;98852.34;;;-2.19;100.00
16030;BME280;34770;49.272;11.070;2023-02-16T07:33:09;98845.06;;;-2.14;100.00
16030;BME280;34770;49.272;11.070;2023-02-16T07:35:36;98820.84;;;-2.27;100.00
16030;BME280;34770;49.272;11.070;2023-02-16T07:38:03;98828.16;;;-1.99;100.00
16030;BME280;34770;49.272;11.070;2023-02-16T07:40:29;98822.50;;;-1.92;100.00
16030;BME280;34770;49.272;11.070;2023-02-16T07:42:58;98831.44;;;-1.80;100.00
16030;BME280;34770;49.272;11.070;2023-02-16T07:45:25;98818.97;;;-1.75;100.00
16030;BME280;34770;49.272;11.070;2023-02-16T07:47:50;98823.06;;;-1.56;100.00
16030;BME280;34770;49.272;11.070;2023-02-16T07:50:16;98817.72;;;-1.46;100.00
16030;BME280;34770;49.272;11.070;2023-02-16T07:52:41;98819.63;;;-1.29;100.00
16030;BME280;34770;49.272;11.070;2023-02-16T07:55:07;98822.03;;;-1.10;100.00
16030;BME280;34770;49.272;11.070;2023-02-16T07:57:33;98818.69;;;-0.95;100.00
16030;BME280;34770;49.272;11.070;2023-02-16T07:59:58;98822.69;;;-0.81;100.00
16030;BME280;34770;49.272;11.070;2023-02-16T08:02:24;98822.47;;;-0.74;100.00
16030;BME280;34770;49.272;11.070;2023-02-16T08:04:51;98806.06;;;-0.74;100.00
16030;BME280;34770;49.272;11.070;2023-02-16T08:07:17;98821.56;;;-0.58;100.00
16030;BME280;34770;49.272;11.070;2023-02-16T08:09:43;98824.38;;;-0.53;100.00
16030;BME280;34770;49.272;11.070;2023-02-16T08:12:13;98819.97;;;-0.26;100.00
16030;BME280;34770;49.272;11.070;2023-02-16T08:14:39;98817.13;;;-0.37;100.00
16030;BME280;34770;49.272;11.070;2023-02-16T08:22:16;98805.03;;;-0.13;100.00
16030;BME280;34770;49.272;11.070;2023-02-16T08:24:42;98811.78;;;0.06;100.00
16030;BME280;34770;49.272;11.070;2023-02-16T08:27:08;98800.34;;;0.14;100.00
16030;BME280;34770;49.272;11.070;2023-02-16T08:29:33;98813.03;;;0.26;100.00
16030;BME280;34770;49.272;11.070;2023-02-16T08:32:00;98800.59;;;0.56;100.00
16030;BME280;34770;49.272;11.070;2023-02-16T08:34:28;98806.50;;;0.80;100.00
16030;BME280;34770;49.272;11.070;2023-02-16T08:36:55;98802.09;;;0.74;100.00
16030;BME280;34770;49.272;11.070;2023-02-16T08:39:26;98811.84;;;1.07;100.00
16030;BME280;34770;49.272;11.070;2023-02-16T08:41:53;98804.78;;;1.27;100.00
16030;BME280;34770;49.272;11.070;2023-02-16T08:44:21;98822.44;;;1.52;100.00
16030;BME280;34770;49.272;11.070;2023-02-16T08:46:48;98812.91;;;1.96;100.00
16030;BME280;34770;49.272;11.070;2023-02-16T08:49:16;98810.97;;;2.06;100.00
16030;BME280;34770;49.272;11.070;2023-02-16T08:51:46;98801.34;;;2.35;100.00
16030;BME280;34770;49.272;11.070;2023-02-16T08:54:23;98808.72;;;2.70;99.46
16030;BME280;34770;49.272;11.070;2023-02-16T08:56:52;98811.91;;;3.03;96.63
16030;BME280;34770;49.272;11.070;2023-02-16T08:59:19;98809.13;;;3.09;95.32
16030;BME280;34770;49.272;11.070;2023-02-16T09:01:45;98805.00;;;3.11;93.30
16030;BME280;34770;49.272;11.070;2023-02-16T09:04:11;98816.16;;;3.41;90.67
16030;BME280;34770;49.272;11.070;2023-02-16T09:06:39;98821.50;;;3.72;91.24
16030;BME280;34770;49.272;11.070;2023-02-16T09:09:05;98820.94;;;3.70;88.43
16030;BME280;34770;49.272;11.070;2023-02-16T09:11:31;98829.41;;;3.83;88.77
16030;BME280;34770;49.272;11.070;2023-02-16T09:13:57;98823.66;;;4.14;89.08
16030;BME280;34770;49.272;11.070;2023-02-16T09:16:25;98816.94;;;5.14;84.54
16030;BME280;34770;49.272;11.070;2023-02-16T09:18:58;98826.09;;;5.72;80.72
16030;BME280;34770;49.272;11.070;2023-02-16T09:21:25;98820.88;;;6.28;78.10
16030;BME280;34770;49.272;11.070;2023-02-16T09:23:53;98835.03;;;6.40;74.52
16030;BME280;34770;49.272;11.070;2023-02-16T09:26:22;98836.75;;;6.55;75.16
16030;BME280;34770;49.272;11.070;2023-02-16T09:28:48;98832.81;;;7.03;71.58
16030;BME280;34770;49.272;11.070;2023-02-16T09:31:29;98831.47;;;7.00;71.38
16030;BME280;34770;49.272;11.070;2023-02-16T09:34:07;98836.03;;;7.24;70.66
16030;BME280;34770;49.272;11.070;2023-02-16T09:36:33;98840.69;;;6.96;72.25
16030;BME280;34770;49.272;11.070;2023-02-16T09:38:59;98837.88;;;7.29;70.21
16030;BME280;34770;49.272;11.070;2023-02-16T09:41:39;98838.84;;;8.11;66.70
16030;BME280;34770;49.272;11.070;2023-02-16T09:47:00;98849.72;;;8.90;63.24
16030;BME280;34770;49.272;11.070;2023-02-16T09:49:41;98850.09;;;8.52;66.28
16030;BME280;34770;49.272;11.070;2023-02-16T09:54:57;98850.03;;;9.95;60.45
16030;BME280;34770;49.272;11.070;2023-02-16T09:57:45;98839.47;;;11.45;55.12
16030;BME280;34770;49.272;11.070;2023-02-16T10:05:30;98841.63;;;12.75;50.34
16030;BME280;34770;49.272;11.070;2023-02-16T10:08:13;98832.88;;;13.10;50.23
16030;BME280;34770;49.272;11.070;2023-02-16T10:10:49;98831.31;;;13.46;48.63
16030;BME280;34770;49.272;11.070;2023-02-16T10:13:25;98832.69;;;12.48;50.35
16030;BME280;34770;49.272;11.070;2023-02-16T10:15:54;98820.19;;;12.33;51.33
16030;BME280;34770;49.272;11.070;2023-02-16T10:18:36;98821.44;;;12.23;51.28
16030;BME280;34770;49.272;11.070;2023-02-16T10:21:11;98831.28;;;11.70;52.74
16030;BME280;34770;49.272;11.070;2023-02-16T10:23:44;98825.88;;;10.96;54.87
16030;BME280;34770;49.272;11.070;2023-02-16T10:31:22;98822.81;;;10.80;57.01
16030;BME280;34770;49.272;11.070;2023-02-16T10:34:19;98820.94;;;10.36;58.19
16030;BME280;34770;49.272;11.070;2023-02-16T10:39:59;98805.69;;;10.60;58.52
16030;BME280;34770;49.272;11.070;2023-02-16T10:43:09;98804.81;;;10.77;57.81
16030;BME280;34770;49.272;11.070;2023-02-16T10:45:48;98797.66;;;10.67;58.41
16030;BME280;34770;49.272;11.070;2023-02-16T10:48:14;98788.69;;;10.18;60.25
16030;BME280;34770;49.272;11.070;2023-02-16T10:53:20;98751.53;;;10.49;59.02
16030;BME280;34770;49.272;11.070;2023-02-16T10:55:46;98782.47;;;10.21;59.23
16030;BME280;34770;49.272;11.070;2023-02-16T10:58:36;98783.13;;;10.09;60.14
16030;BME280;34770;49.272;11.070;2023-02-16T11:01:10;98767.72;;;10.20;60.94
16030;BME280;34770;49.272;11.070;2023-02-16T11:03:44;98781.34;;;9.96;59.83
16030;BME280;34770;49.272;11.070;2023-02-16T11:06:15;98776.25;;;10.15;60.43
16030;BME280;34770;49.272;11.070;2023-02-16T11:08:50;98764.09;;;10.55;59.25
16030;BME280;34770;49.272;11.070;2023-02-16T11:11:18;98786.88;;;10.96;57.34
16030;BME280;34770;49.272;11.070;2023-02-16T11:13:48;98776.31;;;10.72;59.04
16030;BME280;34770;49.272;11.070;2023-02-16T11:16:19;98764.97;;;10.38;59.27
16030;BME280;34770;49.272;11.070;2023-02-16T11:18:54;98755.56;;;11.08;58.75
16030;BME280;34770;49.272;11.070;2023-02-16T11:21:20;98750.03;;;11.29;56.21
16030;BME280;34770;49.272;11.070;2023-02-16T11:24:11;98731.13;;;11.34;56.56
16030;BME280;34770;49.272;11.070;2023-02-16T11:26:37;98736.88;;;11.80;55.25
16030;BME280;34770;49.272;11.070;2023-02-16T11:29:21;98727.16;;;12.08;54.06
16030;BME280;34770;49.272;11.070;2023-02-16T11:31:47;98729.53;;;11.55;54.93
16030;BME280;34770;49.272;11.070;2023-02-16T11:34:32;98742.47;;;11.80;54.93
16030;BME280;34770;49.272;11.070;2023-02-16T11:44:54;98711.34;;;11.27;54.63
16030;BME280;34770;49.272;11.070;2023-02-16T11:47:30;98723.41;;;12.25;52.61
16030;BME280;34770;49.272;11.070;2023-02-16T11:52:50;98708.59;;;12.24;52.77
16030;BME280;34770;49.272;11.070;2023-02-16T11:55:36;98700.28;;;12.03;53.33
16030;BME280;34770;49.272;11.070;2023-02-16T11:58:22;98692.47;;;12.30;53.48
16030;BME280;34770;49.272;11.070;2023-02-16T12:01:21;98703.75;;;12.34;53.69
16030;BME280;34770;49.272;11.070;2023-02-16T12:09:17;98679.69;;;11.74;54.02
16030;BME280;34770;49.272;11.070;2023-02-16T12:11:58;98693.97;;;11.73;54.49
16030;BME280;34770;49.272;11.070;2023-02-16T12:19:44;98692.56;;;12.21;53.63
16030;BME280;34770;49.272;11.070;2023-02-16T12:41:30;98668.56;;;12.08;54.47
16030;BME280;34770;49.272;11.070;2023-02-16T12:44:05;98664.88;;;12.16;53.42
16030;BME280;34770;49.272;11.070;2023-02-16T12:46:39;98643.31;;;12.63;51.81
16030;BME280;34770;49.272;11.070;2023-02-16T12:49:22;98667.16;;;12.60;52.43
16030;BME280;34770;49.272;11.070;2023-02-16T12:52:22;98666.00;;;12.98;52.11
16030;BME280;34770;49.272;11.070;2023-02-16T12:54:58;98660.19;;;12.41;53.25
16030;BME280;34770;49.272;11.070;2023-02-16T12:57:27;98667.06;;;13.06;51.25
16030;BME280;34770;49.272;11.070;2023-02-16T13:00:03;98656.00;;;12.72;51.75
16030;BME280;34770;49.272;11.070;2023-02-16T13:02:37;98653.72;;;12.16;52.61
16030;BME280;34770;49.272;11.070;2023-02-16T13:05:20;98643.78;;;12.77;51.94
16030;BME280;34770;49.272;11.070;2023-02-16T13:07:51;98641.19;;;13.21;51.92
16030;BME280;34770;49.272;11.070;2023-02-16T13:10:35;98635.03;;;12.41;53.12
16030;BME280;34770;49.272;11.070;2023-02-16T13:13:14;98633.53;;;12.81;53.05
16030;BME280;34770;49.272;11.070;2023-02-16T13:15:46;98638.44;;;12.84;52.97
16030;BME280;34770;49.272;11.070;2023-02-16T13:18:29;98634.22;;;12.90;52.27
16030;BME280;34770;49.272;11.070;2023-02-16T13:21:01;98629.91;;;13.59;51.11
16030;BME280;34770;49.272;11.070;2023-02-16T13:26:03;98618.19;;;13.81;50.94
16030;BME280;34770;49.272;11.070;2023-02-16T13:45:14;98605.25;;;13.48;50.32
16030;BME280;34770;49.272;11.070;2023-02-16T13:47:42;98618.25;;;13.16;51.23
16030;BME280;34770;49.272;11.070;2023-02-16T13:50:34;98610.72;;;12.67;52.52
16030;BME280;34770;49.272;11.070;2023-02-16T13:53:16;98620.13;;;12.12;55.86
16030;BME280;34770;49.272;11.070;2023-02-16T13:55:43;98586.16;;;12.10;54.73
16030;BME280;34770;49.272;11.070;2023-02-16T14:05:42;98608.19;;;13.96;50.23
16030;BME280;34770;49.272;11.070;2023-02-16T14:08:26;98609.22;;;14.52;49.35
16030;BME280;34770;49.272;11.070;2023-02-16T14:13:42;98598.53;;;16.04;45.60
16030;BME280;34770;49.272;11.070;2023-02-16T14:21:18;98608.72;;;17.35;41.86
16030;BME280;34770;49.272;11.070;2023-02-16T14:23:54;98602.09;;;17.85;41.64
16030;BME280;34770;49.272;11.070;2023-02-16T14:26:21;98608.63;;;18.79;40.37
16030;BME280;34770;49.272;11.070;2023-02-16T14:29:12;98596.16;;;18.31;39.95
16030;BME280;34770;49.272;11.070;2023-02-16T14:31:50;98616.13;;;18.15;40.06
16030;BME280;34770;49.272;11.070;2023-02-16T14:34:26;98613.47;;;18.78;39.25
16030;BME280;34770;49.272;11.070;2023-02-16T14:39:46;98611.78;;;14.73;46.27
16030;BME280;34770;49.272;11.070;2023-02-16T14:42:17;98597.78;;;16.77;43.68
16030;BME280;34770;49.272;11.070;2023-02-16T14:50:40;98605.13;;;17.69;40.25
16030;BME280;34770;49.272;11.070;2023-02-16T14:56:18;98615.31;;;15.22;43.83
16030;BME280;34770;49.272;11.070;2023-02-16T14:59:08;98611.59;;;15.37;46.37
16030;BME280;34770;49.272;11.070;2023-02-16T15:01:42;98621.31;;;15.04;48.53
16030;BME280;34770;49.272;11.070;2023-02-16T15:04:09;98618.81;;;14.83;48.97
16030;BME280;34770;49.272;11.070;2023-02-16T15:06:43;98628.84;;;13.92;47.78
16030;BME280;34770;49.272;11.070;2023-02-16T15:09:16;98625.69;;;13.24;48.76
16030;BME280;34770;49.272;11.070;2023-02-16T15:11:53;98599.31;;;12.35;50.52
16030;BME280;34770;49.272;11.070;2023-02-16T15:14:46;98625.69;;;12.12;52.55
16030;BME280;34770;49.272;11.070;2023-02-16T15:17:36;98611.31;;;11.89;52.38
16030;BME280;34770;49.272;11.070;2023-02-16T15:20:07;98632.94;;;12.38;51.65
16030;BME280;34770;49.272;11.070;2023-02-16T15:22:35;98629.22;;;12.84;50.43